Time;durP1;ratioP1;P1;durP2;ratioP2;P2;SDS_P1;SDS_P2;PMS_P1;PMS_P2;Temp;Humidity;BMP_temperature;BMP_pressure;BME280_temperature;BME280_humidity;BME280_pressure;Samples;Min_cycle;Max_cycle;Signal;HPM_P1;HPM_P2
2022/09/15 00:02:04;;;;;;;6.20;2.28;;;;;;;;;;5013323;28;20050;-70
2022/09/15 00:04:31;;;;;;;4.47;2.40;;;;;;;;;;5013734;28;20086;-70
2022/09/15 00:06:58;;;;;;;4.15;2.47;;;;;;;;;;5013150;28;20096;-70
2022/09/15 00:09:25;;;;;;;6.25;2.85;;;;;;;;;;4995747;28;20054;-70
2022/09/15 00:11:51;;;;;;;3.78;2.60;;;;;;;;;;5013353;28;20120;-70
2022/09/15 00:14:18;;;;;;;3.90;2.53;;;;;;;;;;4995884;28;20112;-70
2022/09/15 00:16:44;;;;;;;4.13;2.83;;;;;;;;;;5013380;28;20050;-70
2022/09/15 00:19:11;;;;;;;4.53;2.50;;;;;;;;;;5013381;28;20068;-70
2022/09/15 00:21:39;;;;;;;4.18;2.40;;;;;;;;;;5013204;28;20050;-69
2022/09/15 00:24:06;;;;;;;4.07;2.60;;;;;;;;;;5014011;28;20049;-69
2022/09/15 00:26:34;;;;;;;4.13;2.97;;;;;;;;;;5014211;28;20072;-70
2022/09/15 00:29:01;;;;;;;4.63;2.78;;;;;;;;;;5012880;28;20081;-70
2022/09/15 00:31:29;;;;;;;6.70;2.42;;;;;;;;;;5013183;28;20053;-70
2022/09/15 00:33:57;;;;;;;3.38;2.70;;;;;;;;;;5013048;28;20216;-70
2022/09/15 00:36:24;;;;;;;5.18;2.88;;;;;;;;;;5013131;28;20050;-69
2022/09/15 00:38:51;;;;;;;5.00;2.60;;;;;;;;;;5013274;28;20053;-69
2022/09/15 00:41:20;;;;;;;5.35;2.60;;;;;;;;;;5013191;28;20049;-69
2022/09/15 00:44:05;;;;;;;5.18;2.63;;;;;;;;;;5012541;28;20050;-69
2022/09/15 00:46:37;;;;;;;5.72;2.60;;;;;;;;;;5013060;28;20394;-69
2022/09/15 00:49:06;;;;;;;3.42;2.63;;;;;;;;;;4995622;28;20100;-69
2022/09/15 00:51:55;;;;;;;4.50;2.53;;;;;;;;;;4995498;28;20090;-69
2022/09/15 00:54:30;;;;;;;3.10;2.58;;;;;;;;;;4991682;28;20093;-69
2022/09/15 00:56:59;;;;;;;4.15;2.10;;;;;;;;;;4980358;28;20104;-69
2022/09/15 00:59:27;;;;;;;3.53;2.40;;;;;;;;;;4995301;28;20492;-69
2022/09/15 01:02:05;;;;;;;4.47;2.40;;;;;;;;;;4979148;28;20089;-69
2022/09/15 01:04:31;;;;;;;4.35;2.60;;;;;;;;;;4996710;28;20509;-69
2022/09/15 01:07:01;;;;;;;4.10;2.50;;;;;;;;;;5013100;28;20133;-68
2022/09/15 01:09:32;;;;;;;2.30;2.10;;;;;;;;;;4995038;28;20567;-69
2022/09/15 01:11:59;;;;;;;7.18;2.67;;;;;;;;;;4979342;28;20049;-69
2022/09/15 01:14:25;;;;;;;3.67;2.40;;;;;;;;;;5012327;28;20559;-69
2022/09/15 01:17:27;;;;;;;3.85;2.95;;;;;;;;;;5012215;28;20093;-69
2022/09/15 01:20:07;;;;;;;4.75;2.67;;;;;;;;;;4997698;28;20101;-69
2022/09/15 01:22:55;;;;;;;3.03;2.72;;;;;;;;;;4995109;28;20100;-69
2022/09/15 01:26:01;;;;;;;3.50;2.55;;;;;;;;;;4995147;28;20049;-69
2022/09/15 01:28:55;;;;;;;3.97;2.67;;;;;;;;;;4988926;28;20053;-69
2022/09/15 01:31:23;;;;;;;3.55;2.50;;;;;;;;;;5012393;28;20050;-69
2022/09/15 01:34:16;;;;;;;4.30;2.63;;;;;;;;;;4978634;28;20129;-69
2022/09/15 01:36:50;;;;;;;4.40;2.13;;;;;;;;;;4992471;28;20058;-69
2022/09/15 01:39:26;;;;;;;7.93;2.40;;;;;;;;;;5011098;28;20065;-68
2022/09/15 01:42:01;;;;;;;2.75;2.35;;;;;;;;;;4995476;28;20050;-69
2022/09/15 01:44:40;;;;;;;3.63;2.47;;;;;;;;;;4978977;28;20495;-69
2022/09/15 01:47:08;;;;;;;3.97;2.35;;;;;;;;;;5012589;28;20397;-69
2022/09/15 01:49:53;;;;;;;2.78;2.13;;;;;;;;;;4980325;28;20077;-69
2022/09/15 01:52:21;;;;;;;3.50;2.20;;;;;;;;;;5015971;28;20050;-69
2022/09/15 01:54:50;;;;;;;6.05;3.00;;;;;;;;;;4982417;28;20056;-69
2022/09/15 01:57:20;;;;;;;4.30;2.50;;;;;;;;;;4999008;28;20061;-69
2022/09/15 01:59:50;;;;;;;4.18;2.28;;;;;;;;;;5015926;28;20050;-69
2022/09/15 02:02:25;;;;;;;3.35;2.13;;;;;;;;;;5014624;28;20058;-68
2022/09/15 02:05:19;;;;;;;3.72;2.83;;;;;;;;;;4999344;28;20080;-68
2022/09/15 02:08:07;;;;;;;3.28;2.35;;;;;;;;;;4992804;28;20104;-69
2022/09/15 02:10:40;;;;;;;3.92;2.67;;;;;;;;;;5015752;28;20057;-69
2022/09/15 02:13:06;;;;;;;6.10;3.05;;;;;;;;;;4998322;28;20059;-68
2022/09/15 02:15:46;;;;;;;3.40;2.10;;;;;;;;;;5015578;28;20471;-69
2022/09/15 02:18:35;;;;;;;3.83;2.47;;;;;;;;;;4999211;28;20054;-69
2022/09/15 02:21:09;;;;;;;2.67;1.95;;;;;;;;;;5000979;28;20467;-69
2022/09/15 02:23:39;;;;;;;3.03;2.35;;;;;;;;;;5014327;28;20045;-69
2022/09/15 02:26:16;;;;;;;3.70;2.50;;;;;;;;;;4982801;28;20500;-69
2022/09/15 02:28:43;;;;;;;2.58;2.38;;;;;;;;;;4998230;28;20054;-70
2022/09/15 02:31:12;;;;;;;4.53;2.35;;;;;;;;;;4997925;28;20049;-69
2022/09/15 02:33:43;;;;;;;2.80;2.42;;;;;;;;;;5014127;28;20085;-69
2022/09/15 02:36:12;;;;;;;5.28;2.40;;;;;;;;;;4982166;28;20416;-69
2022/09/15 02:38:42;;;;;;;5.03;2.22;;;;;;;;;;4998129;28;20398;-69
2022/09/15 02:41:09;;;;;;;3.92;2.35;;;;;;;;;;4982056;28;20050;-70
2022/09/15 02:43:43;;;;;;;3.25;2.25;;;;;;;;;;4997714;28;20057;-69
2022/09/15 02:46:11;;;;;;;3.13;1.77;;;;;;;;;;5015330;28;20068;-69
2022/09/15 02:48:38;;;;;;;4.65;1.98;;;;;;;;;;5014913;28;20049;-69
2022/09/15 02:51:04;;;;;;;2.88;1.77;;;;;;;;;;5014966;28;20049;-69
2022/09/15 02:53:31;;;;;;;3.53;1.90;;;;;;;;;;5015655;28;20073;-70
2022/09/15 02:55:58;;;;;;;3.03;1.63;;;;;;;;;;5016124;28;20045;-69
2022/09/15 02:58:24;;;;;;;2.85;1.42;;;;;;;;;;5014867;28;20492;-69
2022/09/15 03:00:54;;;;;;;3.00;1.77;;;;;;;;;;5013756;28;20322;-69
2022/09/15 03:03:21;;;;;;;3.08;1.67;;;;;;;;;;5015054;28;20052;-69
2022/09/15 03:05:47;;;;;;;2.33;1.42;;;;;;;;;;5014992;28;20065;-68
2022/09/15 03:08:14;;;;;;;1.60;1.50;;;;;;;;;;5014590;28;20104;-69
2022/09/15 03:10:41;;;;;;;2.60;1.52;;;;;;;;;;5014782;28;20050;-69
2022/09/15 03:13:07;;;;;;;3.15;1.55;;;;;;;;;;5014661;28;20398;-69
2022/09/15 03:15:34;;;;;;;4.00;1.58;;;;;;;;;;5014616;28;20046;-69
2022/09/15 03:18:01;;;;;;;1.38;1.25;;;;;;;;;;4980971;28;20057;-69
2022/09/15 03:20:27;;;;;;;2.53;1.20;;;;;;;;;;5014645;28;20053;-69
2022/09/15 03:22:54;;;;;;;2.38;1.70;;;;;;;;;;5014582;28;20050;-69
2022/09/15 03:25:21;;;;;;;1.95;1.35;;;;;;;;;;5014432;28;20046;-69
2022/09/15 03:27:48;;;;;;;2.78;1.25;;;;;;;;;;5014275;28;20050;-69
2022/09/15 03:30:14;;;;;;;6.88;1.42;;;;;;;;;;5014335;28;20420;-69
2022/09/15 03:32:41;;;;;;;1.60;1.20;;;;;;;;;;5014250;28;20054;-69
2022/09/15 03:35:08;;;;;;;2.30;1.40;;;;;;;;;;5014072;28;20042;-69
2022/09/15 03:37:35;;;;;;;1.45;1.10;;;;;;;;;;5014110;28;20096;-69
2022/09/15 03:40:02;;;;;;;3.47;1.20;;;;;;;;;;5014115;28;20149;-69
2022/09/15 03:42:29;;;;;;;2.75;1.35;;;;;;;;;;5014370;28;20050;-69
2022/09/15 03:44:56;;;;;;;1.98;1.30;;;;;;;;;;5014046;28;20497;-70
2022/09/15 03:47:22;;;;;;;1.60;1.50;;;;;;;;;;5014293;28;20114;-69
2022/09/15 03:49:49;;;;;;;2.53;1.17;;;;;;;;;;5013730;28;20500;-69
2022/09/15 03:52:16;;;;;;;10.75;2.28;;;;;;;;;;5013970;28;20050;-69
2022/09/15 03:54:43;;;;;;;2.53;0.95;;;;;;;;;;5013746;28;20107;-69
2022/09/15 03:57:10;;;;;;;2.10;1.33;;;;;;;;;;5014083;28;20083;-69
2022/09/15 03:59:36;;;;;;;2.58;1.02;;;;;;;;;;5013786;28;20049;-69
2022/09/15 04:02:03;;;;;;;2.35;1.10;;;;;;;;;;5013694;28;20057;-69
2022/09/15 04:04:30;;;;;;;2.35;0.90;;;;;;;;;;5013904;28;20463;-69
2022/09/15 04:06:57;;;;;;;3.30;1.10;;;;;;;;;;5013686;28;20046;-69
2022/09/15 04:09:24;;;;;;;2.65;1.30;;;;;;;;;;5013462;28;20054;-69
2022/09/15 04:11:51;;;;;;;2.95;0.93;;;;;;;;;;5013095;28;20050;-69
2022/09/15 04:14:17;;;;;;;1.40;0.80;;;;;;;;;;5013300;28;20101;-69
2022/09/15 04:16:44;;;;;;;1.33;1.02;;;;;;;;;;5013485;28;20464;-69
2022/09/15 04:19:11;;;;;;;2.17;0.80;;;;;;;;;;5013631;28;20092;-69
2022/09/15 04:21:37;;;;;;;1.27;1.00;;;;;;;;;;5013067;28;20200;-69
2022/09/15 04:24:04;;;;;;;2.38;1.10;;;;;;;;;;5013672;28;20497;-69
2022/09/15 04:26:33;;;;;;;1.42;0.90;;;;;;;;;;5013517;28;20054;-69
2022/09/15 04:29:01;;;;;;;3.33;1.15;;;;;;;;;;5013022;28;20501;-69
2022/09/15 04:31:30;;;;;;;3.47;1.40;;;;;;;;;;5013420;28;20125;-70
2022/09/15 04:33:58;;;;;;;2.25;1.10;;;;;;;;;;5012929;28;20053;-70
2022/09/15 04:36:27;;;;;;;3.35;1.20;;;;;;;;;;5013241;28;20123;-69
2022/09/15 04:38:54;;;;;;;2.58;1.52;;;;;;;;;;5012751;28;20065;-69
2022/09/15 04:41:21;;;;;;;2.55;1.17;;;;;;;;;;4995494;28;20456;-69
2022/09/15 04:43:47;;;;;;;1.42;0.95;;;;;;;;;;5012812;28;20058;-69
2022/09/15 04:46:15;;;;;;;1.83;1.08;;;;;;;;;;5012688;28;20463;-69
2022/09/15 04:48:42;;;;;;;3.58;1.10;;;;;;;;;;4995338;28;20112;-69
2022/09/15 04:51:11;;;;;;;2.08;1.25;;;;;;;;;;5012706;28;20096;-69
2022/09/15 04:53:40;;;;;;;1.02;0.88;;;;;;;;;;5012423;28;20520;-70
2022/09/15 04:56:12;;;;;;;1.25;0.98;;;;;;;;;;4995266;28;20108;-68
2022/09/15 04:58:50;;;;;;;3.33;1.35;;;;;;;;;;4995107;28;20137;-69
2022/09/15 05:01:25;;;;;;;2.15;1.13;;;;;;;;;;5012433;28;20068;-69
2022/09/15 05:03:52;;;;;;;2.45;1.10;;;;;;;;;;5012915;28;20081;-69
2022/09/15 05:06:21;;;;;;;2.00;1.38;;;;;;;;;;5012927;28;20050;-69
2022/09/15 05:08:49;;;;;;;1.80;1.00;;;;;;;;;;5013376;28;20054;-70
2022/09/15 05:11:16;;;;;;;1.45;0.88;;;;;;;;;;5012799;28;20109;-69
2022/09/15 05:13:42;;;;;;;2.40;1.02;;;;;;;;;;5012455;28;20128;-69
2022/09/15 05:16:17;;;;;;;4.03;1.10;;;;;;;;;;5012614;28;20492;-69
2022/09/15 05:18:45;;;;;;;3.47;1.50;;;;;;;;;;5012271;28;20107;-69
2022/09/15 05:21:13;;;;;;;2.00;1.13;;;;;;;;;;5012768;28;20061;-70
2022/09/15 05:23:40;;;;;;;2.63;0.95;;;;;;;;;;4995358;28;20505;-69
2022/09/15 05:26:10;;;;;;;2.67;1.10;;;;;;;;;;5016725;28;20052;-69
2022/09/15 05:28:37;;;;;;;1.35;1.25;;;;;;;;;;5016315;28;20108;-69
2022/09/15 05:31:11;;;;;;;0.98;0.93;;;;;;;;;;5016600;28;20115;-70
2022/09/15 05:33:38;;;;;;;1.70;1.05;;;;;;;;;;5015518;28;20057;-69
2022/09/15 05:36:06;;;;;;;4.85;1.10;;;;;;;;;;5016354;28;20104;-70
2022/09/15 05:38:32;;;;;;;2.47;1.30;;;;;;;;;;4998831;28;20050;-69
2022/09/15 05:41:04;;;;;;;3.40;1.23;;;;;;;;;;5016491;28;20144;-69
2022/09/15 05:43:31;;;;;;;1.73;1.08;;;;;;;;;;5016151;28;20053;-69
2022/09/15 05:45:58;;;;;;;1.95;1.10;;;;;;;;;;5016058;28;20049;-69
2022/09/15 05:48:25;;;;;;;3.33;1.23;;;;;;;;;;5016120;28;20049;-70
2022/09/15 05:50:53;;;;;;;1.67;1.10;;;;;;;;;;5016313;28;20413;-70
2022/09/15 05:53:20;;;;;;;1.48;1.00;;;;;;;;;;5016827;28;20054;-69
2022/09/15 05:55:46;;;;;;;1.73;1.10;;;;;;;;;;5015837;28;20057;-70
2022/09/15 05:58:13;;;;;;;2.20;1.08;;;;;;;;;;5015759;28;20046;-69
2022/09/15 06:00:41;;;;;;;2.63;1.20;;;;;;;;;;5015927;28;20104;-70
2022/09/15 06:03:12;;;;;;;1.00;0.90;;;;;;;;;;5015834;28;20081;-69
2022/09/15 06:05:38;;;;;;;1.60;0.73;;;;;;;;;;4998687;28;20388;-69
2022/09/15 06:08:05;;;;;;;1.83;0.95;;;;;;;;;;5015647;28;20125;-70
2022/09/15 06:10:32;;;;;;;1.73;1.00;;;;;;;;;;4998545;28;20116;-70
2022/09/15 06:12:58;;;;;;;2.10;1.00;;;;;;;;;;5015752;28;20054;-70
2022/09/15 06:15:25;;;;;;;2.15;1.17;;;;;;;;;;5015908;28;20050;-70
2022/09/15 06:17:52;;;;;;;3.97;1.20;;;;;;;;;;5015786;28;20116;-70
2022/09/15 06:20:19;;;;;;;2.80;1.00;;;;;;;;;;5015695;28;20053;-70
2022/09/15 06:22:46;;;;;;;2.05;1.13;;;;;;;;;;5015484;28;20058;-70
2022/09/15 06:25:13;;;;;;;2.67;1.10;;;;;;;;;;5015645;28;20050;-70
2022/09/15 06:27:40;;;;;;;2.38;1.15;;;;;;;;;;5015232;28;20050;-70
2022/09/15 06:30:08;;;;;;;2.53;1.20;;;;;;;;;;5015319;28;20045;-69
2022/09/15 06:32:37;;;;;;;3.78;1.60;;;;;;;;;;5015476;28;20053;-70
2022/09/15 06:35:07;;;;;;;3.08;1.40;;;;;;;;;;5014877;28;20104;-70
2022/09/15 06:37:34;;;;;;;7.22;1.77;;;;;;;;;;4998009;28;20061;-69
2022/09/15 06:40:01;;;;;;;4.65;1.80;;;;;;;;;;5015701;28;20108;-69
2022/09/15 06:42:28;;;;;;;3.83;1.58;;;;;;;;;;5015405;28;20050;-70
2022/09/15 06:44:55;;;;;;;1.90;1.33;;;;;;;;;;5015368;28;20054;-70
2022/09/15 06:47:22;;;;;;;2.63;1.23;;;;;;;;;;5015096;28;20096;-70
2022/09/15 06:49:49;;;;;;;3.00;1.42;;;;;;;;;;5014785;28;20619;-70
2022/09/15 06:52:15;;;;;;;1.73;1.05;;;;;;;;;;5014800;28;20046;-70
2022/09/15 06:54:42;;;;;;;3.33;1.10;;;;;;;;;;5014763;28;20100;-70
2022/09/15 06:57:08;;;;;;;2.83;1.83;;;;;;;;;;5014981;28;20049;-70
2022/09/15 06:59:35;;;;;;;2.28;1.95;;;;;;;;;;5014933;28;20483;-70
2022/09/15 07:02:02;;;;;;;3.97;1.38;;;;;;;;;;5014873;28;20058;-70
2022/09/15 07:04:32;;;;;;;4.28;1.30;;;;;;;;;;5000891;28;20501;-70
2022/09/15 07:06:59;;;;;;;2.10;1.20;;;;;;;;;;5024860;28;20042;-70
2022/09/15 07:09:25;;;;;;;2.08;1.10;;;;;;;;;;5019756;28;20394;-70
2022/09/15 07:11:52;;;;;;;1.77;1.10;;;;;;;;;;5015008;28;20112;-70
2022/09/15 07:14:18;;;;;;;1.85;1.38;;;;;;;;;;5014790;28;20057;-71
2022/09/15 07:16:45;;;;;;;1.20;1.10;;;;;;;;;;5014474;28;20390;-70
2022/09/15 07:19:12;;;;;;;1.58;1.23;;;;;;;;;;5014514;28;20046;-70
2022/09/15 07:21:39;;;;;;;1.40;0.98;;;;;;;;;;5014433;28;20054;-70
2022/09/15 07:24:06;;;;;;;1.73;1.10;;;;;;;;;;5014636;28;20123;-70
2022/09/15 07:26:33;;;;;;;3.08;1.15;;;;;;;;;;5014241;28;20492;-70
2022/09/15 07:29:01;;;;;;;1.30;1.20;;;;;;;;;;5014329;28;20054;-70
2022/09/15 07:31:30;;;;;;;0.95;0.95;;;;;;;;;;5014339;28;20452;-70
2022/09/15 07:34:00;;;;;;;3.78;1.10;;;;;;;;;;5014087;28;20081;-70
2022/09/15 07:36:27;;;;;;;1.65;1.20;;;;;;;;;;5013886;28;20567;-70
2022/09/15 07:38:54;;;;;;;1.27;1.17;;;;;;;;;;5014111;28;20100;-70
2022/09/15 07:41:25;;;;;;;4.22;1.20;;;;;;;;;;5013956;28;20050;-71
2022/09/15 07:43:54;;;;;;;2.72;0.80;;;;;;;;;;5013986;28;20464;-71
2022/09/15 07:46:21;;;;;;;2.28;1.20;;;;;;;;;;5013751;28;20073;-70
2022/09/15 07:48:50;;;;;;;0.93;0.85;;;;;;;;;;5012093;28;20054;-70
2022/09/15 07:51:17;;;;;;;2.55;1.65;;;;;;;;;;5013836;28;20056;-70
2022/09/15 07:53:45;;;;;;;2.90;1.50;;;;;;;;;;5013999;28;20299;-71
2022/09/15 07:56:12;;;;;;;3.40;1.60;;;;;;;;;;5013917;28;20093;-71
2022/09/15 07:58:39;;;;;;;4.85;1.75;;;;;;;;;;5013477;28;20124;-70
2022/09/15 08:01:10;;;;;;;2.38;1.83;;;;;;;;;;5013854;28;20480;-70
2022/09/15 08:03:45;;;;;;;1.75;1.60;;;;;;;;;;5013706;28;20493;-70
2022/09/15 08:06:12;;;;;;;2.10;1.48;;;;;;;;;;5013310;28;20460;-70
2022/09/15 08:08:39;;;;;;;2.22;1.20;;;;;;;;;;5013480;28;20297;-70
2022/09/15 08:11:10;;;;;;;2.25;1.38;;;;;;;;;;5013365;28;20057;-70
2022/09/15 08:13:44;;;;;;;2.25;1.20;;;;;;;;;;5013363;28;20054;-70
2022/09/15 08:16:19;;;;;;;1.38;1.20;;;;;;;;;;5013517;28;20065;-70
2022/09/15 08:18:46;;;;;;;3.97;1.10;;;;;;;;;;5013364;28;20416;-70
2022/09/15 08:21:15;;;;;;;5.35;1.42;;;;;;;;;;5013332;28;20057;-70
2022/09/15 08:23:42;;;;;;;4.80;1.52;;;;;;;;;;5013437;28;20096;-70
2022/09/15 08:26:10;;;;;;;3.00;1.10;;;;;;;;;;5013518;28;20096;-70
2022/09/15 08:28:40;;;;;;;2.58;1.15;;;;;;;;;;5012939;28;20584;-70
2022/09/15 08:31:08;;;;;;;3.35;1.17;;;;;;;;;;5013093;28;20097;-69
2022/09/15 08:33:35;;;;;;;1.00;0.90;;;;;;;;;;4995412;28;20470;-70
2022/09/15 08:36:05;;;;;;;2.60;1.10;;;;;;;;;;5012999;28;20046;-70
2022/09/15 08:38:31;;;;;;;2.65;1.10;;;;;;;;;;5012772;28;20057;-70
2022/09/15 08:41:04;;;;;;;3.05;1.30;;;;;;;;;;4995300;28;20058;-70
2022/09/15 08:43:35;;;;;;;3.72;1.50;;;;;;;;;;5012857;28;20054;-71
2022/09/15 08:46:06;;;;;;;2.78;1.38;;;;;;;;;;4995791;28;20046;-70
2022/09/15 08:48:38;;;;;;;5.53;1.30;;;;;;;;;;4979512;28;20119;-70
2022/09/15 08:51:07;;;;;;;1.45;1.23;;;;;;;;;;5012845;28;20505;-70
2022/09/15 08:53:35;;;;;;;2.28;1.20;;;;;;;;;;4994933;28;20046;-70
2022/09/15 08:56:04;;;;;;;2.30;1.33;;;;;;;;;;4979462;28;20046;-70
2022/09/15 08:58:36;;;;;;;3.00;1.17;;;;;;;;;;5012431;28;20141;-70
2022/09/15 09:01:27;;;;;;;2.28;1.10;;;;;;;;;;4995780;28;20058;-71
2022/09/15 09:04:22;;;;;;;3.13;0.90;;;;;;;;;;4997868;28;20108;-70
2022/09/15 09:06:58;;;;;;;1.40;1.10;;;;;;;;;;4996864;28;20049;-70
2022/09/15 09:09:37;;;;;;;3.28;1.15;;;;;;;;;;5012308;28;20059;-70
2022/09/15 09:12:33;;;;;;;1.23;0.90;;;;;;;;;;4979488;28;20326;-70
2022/09/15 09:15:25;;;;;;;3.85;1.20;;;;;;;;;;5012619;28;20046;-70
2022/09/15 09:18:18;;;;;;;1.85;1.00;;;;;;;;;;4994878;28;20286;-70
2022/09/15 09:20:58;;;;;;;2.27;1.17;;;;;;;;;;4997943;28;20054;-70
2022/09/15 09:23:25;;;;;;;3.92;1.23;;;;;;;;;;5012341;28;20594;-70
2022/09/15 09:25:52;;;;;;;3.47;1.55;;;;;;;;;;5012351;28;20057;-70
2022/09/15 09:28:59;;;;;;;1.00;1.00;;;;;;;;;;4978527;28;20046;-70
2022/09/15 09:31:27;;;;;;;5.53;0.80;;;;;;;;;;4921450;29;20048;-70
2022/09/15 09:34:23;;;;;;;1.55;0.60;;;;;;;;;;4980239;28;20089;-70
2022/09/15 09:36:56;;;;;;;1.48;0.60;;;;;;;;;;4994725;28;20053;-70
2022/09/15 09:39:23;;;;;;;3.20;0.60;;;;;;;;;;4979306;28;20551;-70
2022/09/15 09:41:50;;;;;;;0.95;0.45;;;;;;;;;;4978722;28;20459;-70
2022/09/15 09:44:18;;;;;;;0.30;0.30;;;;;;;;;;5012139;28;20084;-70
2022/09/15 09:46:46;;;;;;;0.50;0.50;;;;;;;;;;4994624;28;20566;-70
2022/09/15 09:49:22;;;;;;;1.80;0.50;;;;;;;;;;5011958;28;20159;-69
2022/09/15 09:51:54;;;;;;;2.67;0.80;;;;;;;;;;5011846;28;20115;-69
2022/09/15 09:54:23;;;;;;;1.20;0.40;;;;;;;;;;5012221;28;20054;-69
2022/09/15 09:56:51;;;;;;;2.08;0.65;;;;;;;;;;5012150;28;20050;-69
2022/09/15 09:59:45;;;;;;;3.20;0.60;;;;;;;;;;4994637;28;20053;-69
2022/09/15 10:02:19;;;;;;;2.47;0.90;;;;;;;;;;4987202;28;20505;-69
2022/09/15 10:04:51;;;;;;;1.95;0.70;;;;;;;;;;5011934;28;20060;-69
2022/09/15 10:07:24;;;;;;;4.00;0.50;;;;;;;;;;4994922;28;20487;-70
2022/09/15 10:09:58;;;;;;;3.85;0.77;;;;;;;;;;4979114;28;20425;-69
2022/09/15 10:12:29;;;;;;;1.70;0.68;;;;;;;;;;4998039;28;20049;-69
2022/09/15 10:14:58;;;;;;;0.63;0.50;;;;;;;;;;4982550;28;20054;-70
2022/09/15 10:17:35;;;;;;;0.93;0.70;;;;;;;;;;4982077;28;20045;-69
2022/09/15 10:20:04;;;;;;;2.10;1.63;;;;;;;;;;4999291;28;20053;-69
2022/09/15 10:22:36;;;;;;;1.52;1.25;;;;;;;;;;5015355;28;20513;-69
2022/09/15 10:25:26;;;;;;;2.03;1.60;;;;;;;;;;4981853;28;20056;-70
2022/09/15 10:28:12;;;;;;;1.58;1.48;;;;;;;;;;5000309;28;20050;-69
2022/09/15 10:30:55;;;;;;;2.17;1.90;;;;;;;;;;5015167;28;20060;-69
2022/09/15 10:33:29;;;;;;;2.72;2.10;;;;;;;;;;4983512;28;20150;-69
2022/09/15 10:36:16;;;;;;;2.08;1.80;;;;;;;;;;5014954;28;20061;-69
2022/09/15 10:39:13;;;;;;;3.03;2.40;;;;;;;;;;5015302;28;20464;-69
2022/09/15 10:42:07;;;;;;;3.42;2.10;;;;;;;;;;5014038;28;20475;-69
2022/09/15 10:44:52;;;;;;;3.58;2.50;;;;;;;;;;5001123;28;20060;-70
2022/09/15 10:47:51;;;;;;;3.88;2.83;;;;;;;;;;4998439;28;20074;-68
2022/09/15 10:50:44;;;;;;;4.07;3.00;;;;;;;;;;4984771;28;20385;-68
2022/09/15 10:53:48;;;;;;;6.00;3.93;;;;;;;;;;4983699;28;20141;-68
2022/09/15 10:56:21;;;;;;;4.13;3.30;;;;;;;;;;5014380;28;20046;-68
2022/09/15 10:59:06;;;;;;;;;;;;;;;;;;5015544;28;20056;-69
2022/09/15 11:02:02;;;;;;;4.82;3.28;;;;;;;;;;5015491;28;20353;-69
2022/09/15 11:04:31;;;;;;;5.18;3.92;;;;;;;;;;5015485;28;20129;-68
2022/09/15 11:07:14;;;;;;;4.03;3.53;;;;;;;;;;5014621;28;20077;-68
2022/09/15 11:10:00;;;;;;;5.22;4.70;;;;;;;;;;5013606;28;20108;-68
2022/09/15 11:12:54;;;;;;;5.82;4.15;;;;;;;;;;5015283;28;20053;-69
2022/09/15 11:15:45;;;;;;;5.20;4.53;;;;;;;;;;5015261;28;20077;-69
2022/09/15 11:18:21;;;;;;;6.22;4.80;;;;;;;;;;5015210;28;20054;-69
2022/09/15 11:21:00;;;;;;;7.53;5.00;;;;;;;;;;5013456;28;20132;-69
2022/09/15 11:23:41;;;;;;;6.35;4.80;;;;;;;;;;5014165;28;20057;-69
2022/09/15 11:26:15;;;;;;;6.55;4.70;;;;;;;;;;4983126;28;20134;-69
2022/09/15 11:28:47;;;;;;;4.75;4.30;;;;;;;;;;4997745;28;20054;-69
2022/09/15 11:31:33;;;;;;;7.20;4.53;;;;;;;;;;4980825;28;20057;-68
2022/09/15 11:34:20;;;;;;;10.15;4.95;;;;;;;;;;4981935;28;20102;-69
2022/09/15 11:37:30;;;;;;;5.53;4.68;;;;;;;;;;5013758;28;20050;-69
2022/09/15 11:40:07;;;;;;;5.47;3.65;;;;;;;;;;4983409;28;20065;-69
2022/09/15 11:42:46;;;;;;;6.13;3.92;;;;;;;;;;4981518;28;20097;-69
2022/09/15 11:45:17;;;;;;;5.18;3.97;;;;;;;;;;5013943;28;20108;-69
2022/09/15 11:47:49;;;;;;;4.90;4.07;;;;;;;;;;4980795;28;20050;-69
2022/09/15 11:50:17;;;;;;;;;;;;;;;;;;4996954;28;20058;-69
2022/09/15 11:52:54;;;;;;;4.75;4.18;;;;;;;;;;5013952;28;19936;-69
2022/09/15 11:55:52;;;;;;;7.05;4.13;;;;;;;;;;4981497;28;20049;-69
2022/09/15 11:58:41;;;;;;;7.97;5.35;;;;;;;;;;4978022;28;20053;-69
2022/09/15 12:01:10;;;;;;;4.60;4.18;;;;;;;;;;5017654;28;20050;-69
2022/09/15 12:03:51;;;;;;;5.03;4.45;;;;;;;;;;5014112;28;20049;-70
2022/09/15 12:06:45;;;;;;;7.53;4.80;;;;;;;;;;4996334;28;20045;-70
2022/09/15 12:09:15;;;;;;;5.35;3.90;;;;;;;;;;4996151;28;20104;-70
2022/09/15 12:11:47;;;;;;;5.10;4.55;;;;;;;;;;4980617;28;20049;-70
2022/09/15 12:14:25;;;;;;;5.05;4.53;;;;;;;;;;4980801;28;20042;-70
2022/09/15 12:16:52;;;;;;;7.03;4.20;;;;;;;;;;4997411;28;20042;-70
2022/09/15 12:19:59;;;;;;;4.50;3.70;;;;;;;;;;5013042;28;20056;-70
2022/09/15 12:22:30;;;;;;;5.03;3.50;;;;;;;;;;4998417;28;20524;-70
2022/09/15 12:25:03;;;;;;;5.78;3.40;;;;;;;;;;4980640;28;20057;-70
2022/09/15 12:27:30;;;;;;;5.22;3.67;;;;;;;;;;4996224;28;20042;-70
2022/09/15 12:29:58;;;;;;;7.30;4.65;;;;;;;;;;5012911;28;20054;-70
2022/09/15 12:32:34;;;;;;;5.85;3.65;;;;;;;;;;5013370;28;20161;-70
2022/09/15 12:35:16;;;;;;;7.47;4.05;;;;;;;;;;5013055;28;20456;-70
2022/09/15 12:37:56;;;;;;;7.25;4.35;;;;;;;;;;5013210;28;20052;-70
2022/09/15 12:40:40;;;;;;;6.45;4.60;;;;;;;;;;5011633;28;20049;-70
2022/09/15 12:43:10;;;;;;;6.18;5.20;;;;;;;;;;4980473;28;20100;-70
2022/09/15 12:45:37;;;;;;;7.05;4.40;;;;;;;;;;5012993;28;20057;-70
2022/09/15 12:48:19;;;;;;;8.70;4.47;;;;;;;;;;4979823;28;20062;-70
2022/09/15 12:50:57;;;;;;;13.13;5.28;;;;;;;;;;5011554;28;20080;-70
2022/09/15 12:53:33;;;;;;;10.00;5.80;;;;;;;;;;5012706;28;20050;-69
2022/09/15 12:56:09;;;;;;;6.75;5.22;;;;;;;;;;4980834;28;20054;-70
2022/09/15 12:58:39;;;;;;;8.55;4.20;;;;;;;;;;4996496;28;20496;-70
2022/09/15 13:01:21;;;;;;;5.40;4.20;;;;;;;;;;4995444;28;20092;-70
2022/09/15 13:03:48;;;;;;;6.40;3.53;;;;;;;;;;5012582;28;20061;-70
2022/09/15 13:06:22;;;;;;;4.60;3.28;;;;;;;;;;5012917;28;20046;-69
2022/09/15 13:09:00;;;;;;;3.95;3.30;;;;;;;;;;5012518;28;20068;-69
2022/09/15 13:11:35;;;;;;;5.25;3.63;;;;;;;;;;5012528;28;20092;-69
2022/09/15 13:14:02;;;;;;;3.40;3.10;;;;;;;;;;5012532;28;20054;-69
2022/09/15 13:16:44;;;;;;;5.88;3.53;;;;;;;;;;5012639;28;20049;-69
2022/09/15 13:19:19;;;;;;;6.43;3.97;;;;;;;;;;5012460;28;20046;-69
2022/09/15 13:21:59;;;;;;;5.90;3.60;;;;;;;;;;5012165;28;20050;-69
2022/09/15 13:24:38;;;;;;;6.03;3.40;;;;;;;;;;5011207;28;20468;-69
2022/09/15 13:27:05;;;;;;;4.07;3.03;;;;;;;;;;4995194;28;20050;-70
2022/09/15 13:29:32;;;;;;;5.65;3.35;;;;;;;;;;4994994;28;20054;-69
2022/09/15 13:32:35;;;;;;;6.13;3.38;;;;;;;;;;4995170;28;20057;-70
2022/09/15 13:35:07;;;;;;;4.30;3.20;;;;;;;;;;4995201;28;20119;-70
2022/09/15 13:38:03;;;;;;;4.03;2.80;;;;;;;;;;5012565;28;20501;-70
2022/09/15 13:40:48;;;;;;;4.65;2.30;;;;;;;;;;5012295;28;20053;-70
2022/09/15 13:43:28;;;;;;;5.75;2.28;;;;;;;;;;4995244;28;20045;-70
2022/09/15 13:46:11;;;;;;;4.07;2.28;;;;;;;;;;4997241;28;20050;-70
2022/09/15 13:49:12;;;;;;;3.92;2.15;;;;;;;;;;5016176;28;20050;-70
2022/09/15 13:51:39;;;;;;;7.32;1.80;;;;;;;;;;5015392;28;20050;-70
2022/09/15 13:54:13;;;;;;;5.05;2.35;;;;;;;;;;4998672;28;20104;-69
2022/09/15 13:56:40;;;;;;;3.28;2.40;;;;;;;;;;5014910;28;20099;-69
2022/09/15 13:59:13;;;;;;;2.58;2.38;;;;;;;;;;5015962;28;20053;-69
2022/09/15 14:01:42;;;;;;;3.42;2.28;;;;;;;;;;4999292;28;20053;-69
2022/09/15 14:04:16;;;;;;;5.00;2.20;;;;;;;;;;4998569;28;20077;-69
2022/09/15 14:06:44;;;;;;;4.10;1.95;;;;;;;;;;4998741;28;20042;-68
2022/09/15 14:09:17;;;;;;;4.45;2.53;;;;;;;;;;5015525;28;20457;-69
2022/09/15 14:11:46;;;;;;;2.92;2.08;;;;;;;;;;4999197;28;20112;-69
2022/09/15 14:14:51;;;;;;;4.20;2.83;;;;;;;;;;5015768;28;20054;-69
2022/09/15 14:17:23;;;;;;;4.95;2.60;;;;;;;;;;4998577;28;20076;-69
2022/09/15 14:19:54;;;;;;;3.25;2.40;;;;;;;;;;5015746;28;20057;-69
2022/09/15 14:22:33;;;;;;;4.60;2.13;;;;;;;;;;5015446;28;20050;-69
2022/09/15 14:25:10;;;;;;;3.20;2.05;;;;;;;;;;5015797;28;20057;-69
2022/09/15 14:27:37;;;;;;;2.92;2.20;;;;;;;;;;4998142;28;20060;-69
2022/09/15 14:30:06;;;;;;;5.13;2.25;;;;;;;;;;4998188;28;20060;-69
2022/09/15 14:32:38;;;;;;;4.80;2.45;;;;;;;;;;4998194;28;20497;-69
2022/09/15 14:35:08;;;;;;;2.50;2.28;;;;;;;;;;4998023;28;20417;-69
2022/09/15 14:37:34;;;;;;;4.93;2.40;;;;;;;;;;4982081;28;20061;-69
2022/09/15 14:40:02;;;;;;;3.55;2.10;;;;;;;;;;4997534;28;20054;-69
2022/09/15 14:42:34;;;;;;;4.60;2.40;;;;;;;;;;4981461;28;20050;-69
2022/09/15 14:45:10;;;;;;;4.55;2.00;;;;;;;;;;4982350;28;20072;-69
2022/09/15 14:48:01;;;;;;;2.65;2.10;;;;;;;;;;5014708;28;20555;-69
2022/09/15 14:50:29;;;;;;;4.78;2.58;;;;;;;;;;5015063;28;20050;-69
2022/09/15 14:53:06;;;;;;;4.20;2.10;;;;;;;;;;4997285;28;20427;-69
2022/09/15 14:55:35;;;;;;;5.20;2.25;;;;;;;;;;4996524;28;20124;-69
2022/09/15 14:58:05;;;;;;;3.53;1.70;;;;;;;;;;4995906;28;20053;-69
2022/09/15 15:01:08;;;;;;;3.30;2.10;;;;;;;;;;4996650;28;20575;-69
2022/09/15 15:03:48;;;;;;;3.50;2.00;;;;;;;;;;4986938;28;20520;-69
2022/09/15 15:06:33;;;;;;;2.45;2.17;;;;;;;;;;5013761;28;20566;-69
2022/09/15 15:09:45;;;;;;;4.38;2.03;;;;;;;;;;5013551;28;20130;-69
2022/09/15 15:12:28;;;;;;;2.63;1.80;;;;;;;;;;4991827;28;20053;-69
2022/09/15 15:14:55;;;;;;;2.30;2.10;;;;;;;;;;4997670;28;20507;-69
2022/09/15 15:17:35;;;;;;;2.33;1.98;;;;;;;;;;4996167;28;20046;-69
2022/09/15 15:20:04;;;;;;;2.58;2.13;;;;;;;;;;5013537;28;20125;-69